createdAt,value
2023-04-22T00:00:29.467Z,4.25
2023-04-22T00:02:57.962Z,2.85
2023-04-22T00:05:25.553Z,2.72
2023-04-22T00:07:52.759Z,5.38
2023-04-22T00:10:19.873Z,2.70
2023-04-22T00:12:47.854Z,2.22
2023-04-22T00:15:14.782Z,2.70
2023-04-22T00:17:42.963Z,3.67
2023-04-22T00:20:11.606Z,3.50
2023-04-22T00:22:38.744Z,3.10
2023-04-22T00:25:06.557Z,4.18
2023-04-22T00:27:33.991Z,5.32
2023-04-22T00:30:01.124Z,2.75
2023-04-22T00:32:31.445Z,3.88
2023-04-22T00:34:58.551Z,2.67
2023-04-22T00:37:26.250Z,3.25
2023-04-22T00:39:53.392Z,3.03
2023-04-22T00:42:21.846Z,3.85
2023-04-22T00:44:50.688Z,2.60
2023-04-22T00:47:18.890Z,5.45
2023-04-22T00:49:48.005Z,2.70
2023-04-22T00:52:15.112Z,4.28
2023-04-22T00:54:42.302Z,2.47
2023-04-22T00:57:09.433Z,2.53
2023-04-22T00:59:37.069Z,4.43
2023-04-22T01:02:04.932Z,2.83
2023-04-22T01:04:32.154Z,3.92
2023-04-22T01:06:59.840Z,2.95
2023-04-22T01:09:26.810Z,3.05
2023-04-22T01:11:54.482Z,5.80
2023-04-22T01:14:21.516Z,2.97
2023-04-22T01:16:49.290Z,3.38
2023-04-22T01:19:16.926Z,3.13
2023-04-22T01:21:45.394Z,3.58
2023-04-22T01:24:12.453Z,3.17
2023-04-22T01:26:39.544Z,4.03
2023-04-22T01:29:06.763Z,5.65
2023-04-22T01:31:34.617Z,2.75
2023-04-22T01:34:02.211Z,4.47
2023-04-22T01:36:29.318Z,2.78
2023-04-22T01:38:56.584Z,5.50
2023-04-22T01:41:24.079Z,2.67
2023-04-22T01:43:58.034Z,4.68
2023-04-22T01:46:25.195Z,3.75
2023-04-22T01:48:52.302Z,2.53
2023-04-22T01:51:23.709Z,6.55
2023-04-22T01:53:51.398Z,2.72
2023-04-22T01:56:18.803Z,3.58
2023-04-22T01:58:45.890Z,4.05
2023-04-22T02:01:13.576Z,4.45
2023-04-22T02:03:40.854Z,3.15
2023-04-22T02:06:07.896Z,4.20
2023-04-22T02:08:35.341Z,5.38
2023-04-22T02:11:02.436Z,2.60
2023-04-22T02:13:40.546Z,2.83
2023-04-22T02:16:09.997Z,3.58
2023-04-22T02:18:37.272Z,2.80
2023-04-22T02:21:04.471Z,2.60
2023-04-22T02:23:31.512Z,3.10
2023-04-22T02:25:58.617Z,6.40
2023-04-22T02:28:25.823Z,3.33
2023-04-22T02:30:52.969Z,3.03
2023-04-22T02:33:20.294Z,2.38
2023-04-22T02:35:47.341Z,2.72
2023-04-22T02:38:14.441Z,4.28
2023-04-22T02:40:41.576Z,2.85
2023-04-22T02:43:08.863Z,2.75
2023-04-22T02:45:36.126Z,4.80
2023-04-22T02:48:03.502Z,3.67
2023-04-22T02:50:30.565Z,2.30
2023-04-22T02:52:57.520Z,2.67
2023-04-22T02:55:25.041Z,2.65
2023-04-22T02:57:52.410Z,4.20
2023-04-22T03:00:19.500Z,3.58
2023-04-22T03:02:46.935Z,3.17
2023-04-22T03:05:14.695Z,3.70
2023-04-22T03:07:41.836Z,3.22
2023-04-22T03:10:09.623Z,3.15
2023-04-22T03:12:36.617Z,3.70
2023-04-22T03:15:03.806Z,4.15
2023-04-22T03:17:34.940Z,3.20
2023-04-22T03:20:02.085Z,4.38
2023-04-22T03:22:31.906Z,4.05
2023-04-22T03:24:59.109Z,3.33
2023-04-22T03:27:26.494Z,3.08
2023-04-22T03:29:53.475Z,2.90
2023-04-22T03:32:21.025Z,2.65
2023-04-22T03:34:48.076Z,2.47
2023-04-22T03:37:15.168Z,3.45
2023-04-22T03:39:42.389Z,6.13
2023-04-22T03:42:11.178Z,3.95
2023-04-22T03:44:38.187Z,3.38
2023-04-22T03:47:05.339Z,4.63
2023-04-22T03:49:32.921Z,3.53
2023-04-22T03:51:59.875Z,3.72
2023-04-22T03:54:27.649Z,3.78
2023-04-22T03:56:54.722Z,3.17
2023-04-22T03:59:21.689Z,4.80
2023-04-22T04:01:51.314Z,2.63
2023-04-22T04:04:18.580Z,3.03
2023-04-22T04:06:46.212Z,4.20
2023-04-22T04:09:13.431Z,3.58
2023-04-22T04:11:40.394Z,3.47
2023-04-22T04:14:08.189Z,2.88
2023-04-22T04:16:35.420Z,2.60
2023-04-22T04:19:02.976Z,2.25
2023-04-22T04:21:30.043Z,3.17
2023-04-22T04:23:57.093Z,3.15
2023-04-22T04:26:24.193Z,4.03
2023-04-22T04:28:51.261Z,2.65
2023-04-22T04:31:18.416Z,8.30
2023-04-22T04:33:46.891Z,6.15
2023-04-22T04:36:13.886Z,5.88
2023-04-22T04:38:40.986Z,6.68
2023-04-22T04:41:10.878Z,2.17
2023-04-22T04:43:38.022Z,2.95
2023-04-22T04:46:05.082Z,4.65
2023-04-22T04:48:36.321Z,9.25
2023-04-22T04:51:04.366Z,9.07
2023-04-22T04:53:31.422Z,10.70
2023-04-22T04:55:58.605Z,8.45
2023-04-22T04:58:25.768Z,20.85
2023-04-22T05:00:52.871Z,6.55
2023-04-22T05:03:20.117Z,8.07
2023-04-22T05:05:49.118Z,6.38
2023-04-22T05:08:16.274Z,8.52
2023-04-22T05:10:43.379Z,6.35
2023-04-22T05:13:10.439Z,5.43
2023-04-22T05:15:37.817Z,6.07
2023-04-22T05:18:05.469Z,9.93
2023-04-22T05:20:35.364Z,4.70
2023-04-22T05:23:03.211Z,4.15
2023-04-22T05:25:30.427Z,3.20
2023-04-22T05:27:57.444Z,16.85
2023-04-22T05:30:24.521Z,6.07
2023-04-22T05:32:51.572Z,2.72
2023-04-22T05:35:18.887Z,9.27
2023-04-22T05:37:45.870Z,36.80
2023-04-22T05:40:12.981Z,5.15
2023-04-22T05:42:40.458Z,3.20
2023-04-22T05:45:08.370Z,8.45
2023-04-22T05:47:35.795Z,6.68
2023-04-22T05:50:03.989Z,12.15
2023-04-22T05:52:31.106Z,7.88
2023-04-22T05:54:58.256Z,9.80
2023-04-22T05:58:48.710Z,13.32
2023-04-22T06:01:15.941Z,4.82
2023-04-22T06:03:43.341Z,9.75
2023-04-22T06:06:10.732Z,9.52
2023-04-22T06:08:37.724Z,6.55
2023-04-22T06:11:04.823Z,14.32
2023-04-22T06:13:31.874Z,4.43
2023-04-22T06:15:59.154Z,6.55
2023-04-22T06:18:27.496Z,2.22
2023-04-22T06:20:55.958Z,4.43
2023-04-22T06:23:23.210Z,5.47
2023-04-22T06:25:50.221Z,3.58
2023-04-22T06:28:17.569Z,2.63
2023-04-22T06:30:44.597Z,7.32
2023-04-22T06:33:11.677Z,7.20
2023-04-22T06:35:38.715Z,2.85
2023-04-22T06:38:06.015Z,3.05
2023-04-22T06:40:33.257Z,8.85
2023-04-22T06:43:00.679Z,3.35
2023-04-22T06:45:27.845Z,5.68
2023-04-22T06:47:55.106Z,2.85
2023-04-22T06:50:22.518Z,6.57
2023-04-22T06:52:52.002Z,3.10
2023-04-22T06:55:19.049Z,6.13
2023-04-22T06:57:47.623Z,3.92
2023-04-22T07:00:14.995Z,3.88
2023-04-22T07:02:42.266Z,9.30
2023-04-22T07:05:09.703Z,6.55
2023-04-22T07:07:36.803Z,4.05
2023-04-22T07:10:04.600Z,21.92
2023-04-22T07:12:31.930Z,9.63
2023-04-22T07:14:59.004Z,2.80
2023-04-22T07:17:26.030Z,2.45
2023-04-22T07:19:53.994Z,4.75
2023-04-22T07:22:21.169Z,4.50
2023-04-22T07:24:48.218Z,5.80
2023-04-22T07:27:15.939Z,4.38
2023-04-22T07:29:43.325Z,4.85
2023-04-22T07:32:10.805Z,3.10
2023-04-22T07:34:38.040Z,7.57
2023-04-22T07:37:07.367Z,4.22
2023-04-22T07:39:34.452Z,1.95
2023-04-22T07:42:02.323Z,2.35
2023-04-22T07:44:29.828Z,11.43
2023-04-22T07:46:56.834Z,23.45
2023-04-22T07:49:24.259Z,8.43
2023-04-22T07:51:51.805Z,2.80
2023-04-22T07:54:18.944Z,2.90
2023-04-22T07:56:46.066Z,4.90
2023-04-22T07:59:13.304Z,10.55
2023-04-22T08:01:40.355Z,4.28
2023-04-22T08:04:08.261Z,3.92
2023-04-22T08:06:35.673Z,4.05
2023-04-22T08:09:02.664Z,4.20
2023-04-22T08:11:29.873Z,2.53
2023-04-22T08:13:56.872Z,8.07
2023-04-22T08:16:24.232Z,4.85
2023-04-22T08:18:52.469Z,4.78
2023-04-22T08:21:19.526Z,4.57
2023-04-22T08:23:46.531Z,6.47
2023-04-22T08:26:15.481Z,7.28
2023-04-22T08:28:42.941Z,3.42
2023-04-22T08:31:12.073Z,3.20
2023-04-22T08:33:41.519Z,6.93
2023-04-22T08:36:09.899Z,7.97
2023-04-22T08:38:37.649Z,6.85
2023-04-22T08:41:07.237Z,3.42
2023-04-22T08:43:34.860Z,3.55
2023-04-22T08:46:02.394Z,8.30
2023-04-22T08:48:29.646Z,6.03
2023-04-22T08:50:58.204Z,19.17
2023-04-22T08:55:53.979Z,3.40
2023-04-22T08:58:21.777Z,5.95
2023-04-22T09:00:48.953Z,3.55
2023-04-22T09:03:16.957Z,8.10
2023-04-22T09:05:45.735Z,2.28
2023-04-22T09:08:12.942Z,7.75
2023-04-22T09:10:40.042Z,2.92
2023-04-22T09:13:07.358Z,3.97
2023-04-22T09:15:34.470Z,2.80
2023-04-22T09:18:04.356Z,4.13
2023-04-22T09:20:32.116Z,4.68
2023-04-22T09:23:04.256Z,8.55
2023-04-22T09:25:35.140Z,4.75
2023-04-22T09:28:03.438Z,7.10
2023-04-22T09:30:38.025Z,4.50
2023-04-22T09:33:07.435Z,3.17
2023-04-22T09:35:37.911Z,4.63
2023-04-22T09:38:08.330Z,13.13
2023-04-22T09:40:36.860Z,5.53
2023-04-22T09:45:45.688Z,4.00
2023-04-22T09:50:45.179Z,7.25
2023-04-22T09:53:15.845Z,8.05
2023-04-22T09:55:46.332Z,10.50
2023-04-22T09:58:18.927Z,5.28
2023-04-22T10:00:52.289Z,3.55
2023-04-22T10:03:20.221Z,3.63
2023-04-22T10:05:47.489Z,5.32
2023-04-22T10:08:16.399Z,1.88
2023-04-22T10:10:44.162Z,5.22
2023-04-22T10:13:11.187Z,3.05
2023-04-22T10:15:41.057Z,4.10
2023-04-22T10:18:13.923Z,2.10
2023-04-22T10:20:43.390Z,4.80
2023-04-22T10:23:18.212Z,2.67
2023-04-22T10:25:49.421Z,3.45
2023-04-22T10:28:17.845Z,2.33
2023-04-22T10:33:39.511Z,2.22
2023-04-22T10:36:09.468Z,5.78
2023-04-22T10:38:42.779Z,7.13
2023-04-22T10:41:16.323Z,6.70
2023-04-22T10:43:47.661Z,2.85
2023-04-22T10:46:34.763Z,7.38
2023-04-22T10:49:13.192Z,2.53
2023-04-22T10:51:44.213Z,2.10
2023-04-22T10:54:31.883Z,5.43
2023-04-22T10:57:09.383Z,4.65
2023-04-22T10:59:50.488Z,6.65
2023-04-22T11:02:18.899Z,3.78
2023-04-22T11:04:46.070Z,3.05
2023-04-22T11:07:20.891Z,11.57
2023-04-22T11:12:36.347Z,7.55
2023-04-22T11:15:07.850Z,8.05
2023-04-22T11:17:36.312Z,4.22
2023-04-22T11:20:05.585Z,3.50
2023-04-22T11:22:36.908Z,3.25
2023-04-22T11:25:05.823Z,2.90
2023-04-22T11:27:33.149Z,3.70
2023-04-22T11:30:15.902Z,5.10
2023-04-22T11:32:51.284Z,7.32
2023-04-22T11:35:21.553Z,5.07
2023-04-22T11:37:52.082Z,3.53
2023-04-22T11:42:56.710Z,4.35
2023-04-22T11:45:24.698Z,3.13
2023-04-22T11:47:52.952Z,3.85
2023-04-22T11:50:26.131Z,2.13
2023-04-22T11:53:04.742Z,6.00
2023-04-22T11:55:38.454Z,4.15
2023-04-22T11:58:17.842Z,3.58
2023-04-22T12:00:50.582Z,2.70
2023-04-22T12:03:26.141Z,5.93
2023-04-22T12:08:32.993Z,2.75
2023-04-22T12:11:05.283Z,5.78
2023-04-22T12:13:39.101Z,3.95
2023-04-22T12:16:14.542Z,3.28
2023-04-22T12:18:52.962Z,25.92
2023-04-22T12:21:26.157Z,4.72
2023-04-22T12:23:59.247Z,4.55
2023-04-22T12:26:27.930Z,5.60
2023-04-22T12:28:57.036Z,3.95
2023-04-22T12:31:24.900Z,8.38
2023-04-22T12:33:52.073Z,31.10
2023-04-22T12:36:23.725Z,8.75
2023-04-22T12:38:51.461Z,7.90
2023-04-22T12:41:18.444Z,15.77
2023-04-22T12:43:45.524Z,4.43
2023-04-22T12:46:12.673Z,13.60
2023-04-22T12:48:39.809Z,9.02
2023-04-22T12:51:07.212Z,4.97
2023-04-22T12:53:34.963Z,5.18
2023-04-22T12:56:02.391Z,7.80
2023-04-22T12:58:29.576Z,5.95
2023-04-22T13:00:56.783Z,9.73
2023-04-22T13:03:24.121Z,5.78
2023-04-22T13:05:52.803Z,6.15
2023-04-22T13:08:19.977Z,4.38
2023-04-22T13:10:46.959Z,4.50
2023-04-22T13:13:18.522Z,4.20
2023-04-22T13:15:48.158Z,6.05
2023-04-22T13:18:17.056Z,3.17
2023-04-22T13:20:44.522Z,3.85
2023-04-22T13:23:13.307Z,6.75
2023-04-22T13:25:40.428Z,3.65
2023-04-22T13:28:07.545Z,3.78
2023-04-22T13:30:34.665Z,5.70
2023-04-22T13:33:01.771Z,2.40
2023-04-22T13:35:28.799Z,3.63
2023-04-22T13:37:56.340Z,8.77
2023-04-22T13:40:23.370Z,3.53
2023-04-22T13:42:50.366Z,7.25
2023-04-22T13:45:17.493Z,7.45
2023-04-22T13:47:44.654Z,6.80
2023-04-22T13:50:12.022Z,7.30
2023-04-22T13:52:39.325Z,4.00
2023-04-22T13:55:06.961Z,4.80
2023-04-22T13:57:34.073Z,4.40
2023-04-22T14:00:01.163Z,2.55
2023-04-22T14:02:28.429Z,5.10
2023-04-22T14:04:55.506Z,4.70
2023-04-22T14:07:22.740Z,3.50
2023-04-22T14:09:49.850Z,9.13
2023-04-22T14:12:17.063Z,12.75
2023-04-22T14:14:44.171Z,11.23
2023-04-22T14:17:11.607Z,5.00
2023-04-22T14:19:40.088Z,20.30
2023-04-22T14:22:07.414Z,12.23
2023-04-22T14:24:34.492Z,8.93
2023-04-22T14:27:04.535Z,6.90
2023-04-22T14:29:32.122Z,2.45
2023-04-22T14:31:59.829Z,9.88
2023-04-22T14:34:27.482Z,8.02
2023-04-22T14:36:54.674Z,11.40
2023-04-22T14:39:21.754Z,24.15
2023-04-22T14:41:49.169Z,14.35
2023-04-22T14:44:16.386Z,8.88
2023-04-22T14:46:43.492Z,6.85
2023-04-22T14:49:10.456Z,12.95
2023-04-22T14:51:37.575Z,12.65
2023-04-22T14:54:04.935Z,4.65
2023-04-22T14:56:32.058Z,16.10
2023-04-22T14:58:59.045Z,7.05
2023-04-22T15:01:26.194Z,6.93
2023-04-22T15:03:53.471Z,11.57
2023-04-22T15:06:20.844Z,5.85
2023-04-22T15:08:47.894Z,6.75
2023-04-22T15:11:15.089Z,8.73
2023-04-22T15:13:42.080Z,7.95
2023-04-22T15:16:09.462Z,5.55
2023-04-22T15:18:36.566Z,9.27
2023-04-22T15:21:05.892Z,6.15
2023-04-22T15:23:33.216Z,7.93
2023-04-22T15:26:00.394Z,8.20
2023-04-22T15:28:27.430Z,4.32
2023-04-22T15:30:54.419Z,6.30
2023-04-22T15:33:21.738Z,5.88
2023-04-22T15:35:50.548Z,4.55
2023-04-22T15:38:18.002Z,7.05
2023-04-22T15:40:45.314Z,3.25
2023-04-22T15:43:12.408Z,4.80
2023-04-22T15:45:39.464Z,5.03
2023-04-22T15:48:06.591Z,5.85
2023-04-22T15:50:33.566Z,6.68
2023-04-22T15:53:00.846Z,6.45
2023-04-22T15:55:27.956Z,10.20
2023-04-22T15:57:55.064Z,7.88
2023-04-22T16:00:22.209Z,9.18
2023-04-22T16:02:55.777Z,15.20
2023-04-22T16:05:25.175Z,10.82
2023-04-22T16:07:54.158Z,9.80
2023-04-22T16:10:21.497Z,7.70
2023-04-22T16:12:49.375Z,9.52
2023-04-22T16:15:17.918Z,7.85
2023-04-22T16:17:45.193Z,5.60
2023-04-22T16:20:12.430Z,6.63
2023-04-22T16:22:39.583Z,4.38
2023-04-22T16:25:07.486Z,7.30
2023-04-22T16:27:34.863Z,6.90
2023-04-22T16:30:02.169Z,7.72
2023-04-22T16:32:32.982Z,5.22
2023-04-22T16:35:00.303Z,7.28
2023-04-22T16:37:27.749Z,6.32
2023-04-22T16:39:55.468Z,5.93
2023-04-22T16:42:22.620Z,17.67
2023-04-22T16:44:51.458Z,14.45
2023-04-22T16:47:19.198Z,23.67
2023-04-22T16:49:47.043Z,11.70
2023-04-22T16:52:14.123Z,11.68
2023-04-22T16:54:42.644Z,8.98
2023-04-22T16:57:11.635Z,21.35
2023-04-22T16:59:39.421Z,57.35
2023-04-22T17:02:06.768Z,58.45
2023-04-22T17:04:34.004Z,48.88
2023-04-22T17:07:01.416Z,42.28
2023-04-22T17:09:28.532Z,33.00
2023-04-22T17:11:56.986Z,20.90
2023-04-22T17:14:24.303Z,10.85
2023-04-22T17:16:51.542Z,8.35
2023-04-22T17:19:18.749Z,7.60
2023-04-22T17:21:45.919Z,10.00
2023-04-22T17:24:13.414Z,6.15
2023-04-22T17:26:40.922Z,8.45
2023-04-22T17:29:08.156Z,3.85
2023-04-22T17:31:35.279Z,8.85
2023-04-22T17:34:03.582Z,7.65
2023-04-22T17:36:31.882Z,9.50
2023-04-22T17:38:58.972Z,9.55
2023-04-22T17:41:26.204Z,8.75
2023-04-22T17:43:53.232Z,7.60
2023-04-22T17:46:20.633Z,6.65
2023-04-22T17:48:47.783Z,6.28
2023-04-22T17:51:15.254Z,10.80
2023-04-22T17:53:42.418Z,7.38
2023-04-22T17:56:10.047Z,8.68
2023-04-22T17:58:39.980Z,8.52
2023-04-22T18:01:08.687Z,9.77
2023-04-22T18:03:36.807Z,21.80
2023-04-22T18:06:04.098Z,28.63
2023-04-22T18:08:37.309Z,38.38
2023-04-22T18:11:05.287Z,47.42
2023-04-22T18:13:33.090Z,36.67
2023-04-22T18:16:00.603Z,26.02
2023-04-22T18:18:28.337Z,22.42
2023-04-22T18:20:55.402Z,20.10
2023-04-22T18:23:22.646Z,25.60
2023-04-22T18:25:49.715Z,28.08
2023-04-22T18:28:16.804Z,25.05
2023-04-22T18:30:44.500Z,24.00
2023-04-22T18:33:11.711Z,16.60
2023-04-22T18:35:39.069Z,10.43
2023-04-22T18:38:06.190Z,8.77
2023-04-22T18:40:33.941Z,12.90
2023-04-22T18:43:01.203Z,10.02
2023-04-22T18:45:28.382Z,6.90
2023-04-22T18:47:55.599Z,8.52
2023-04-22T18:50:22.680Z,10.90
2023-04-22T18:52:49.959Z,7.47
2023-04-22T18:55:17.089Z,7.22
2023-04-22T18:57:44.318Z,9.43
2023-04-22T19:00:13.473Z,4.50
2023-04-22T19:02:42.315Z,8.82
2023-04-22T19:05:10.079Z,11.23
2023-04-22T19:07:38.555Z,7.07
2023-04-22T19:10:06.614Z,7.00
2023-04-22T19:12:34.572Z,6.97
2023-04-22T19:15:01.653Z,14.27
2023-04-22T19:17:32.198Z,8.25
2023-04-22T19:19:59.311Z,10.40
2023-04-22T19:22:26.939Z,14.23
2023-04-22T19:24:54.295Z,12.38
2023-04-22T19:27:22.074Z,10.93
2023-04-22T19:29:51.908Z,12.10
2023-04-22T19:32:19.834Z,12.63
2023-04-22T19:34:47.751Z,9.63
2023-04-22T19:37:15.084Z,7.22
2023-04-22T19:39:42.506Z,9.52
2023-04-22T19:42:09.991Z,10.32
2023-04-22T19:44:37.294Z,5.78
2023-04-22T19:47:04.351Z,8.30
2023-04-22T19:49:32.715Z,6.88
2023-04-22T19:52:02.742Z,5.43
2023-04-22T19:54:30.332Z,5.85
2023-04-22T19:56:58.653Z,10.70
2023-04-22T19:59:28.219Z,6.28
2023-04-22T20:01:55.673Z,8.57
2023-04-22T20:04:23.227Z,29.17
2023-04-22T20:06:51.612Z,44.65
2023-04-22T20:09:19.309Z,15.38
2023-04-22T20:11:46.819Z,5.13
2023-04-22T20:14:14.697Z,6.82
2023-04-22T20:16:42.570Z,5.47
2023-04-22T20:19:11.554Z,6.10
2023-04-22T20:21:40.229Z,13.15
2023-04-22T20:24:08.139Z,6.70
2023-04-22T20:26:35.667Z,9.70
2023-04-22T20:29:03.427Z,9.50
2023-04-22T20:31:30.703Z,11.35
2023-04-22T20:33:58.305Z,14.95
2023-04-22T20:36:26.650Z,22.58
2023-04-22T20:38:55.179Z,10.13
2023-04-22T20:41:24.798Z,12.30
2023-04-22T20:43:52.417Z,7.82
2023-04-22T20:46:22.696Z,13.40
2023-04-22T20:48:50.005Z,10.82
2023-04-22T20:51:16.998Z,14.88
2023-04-22T20:53:44.271Z,10.38
2023-04-22T20:56:11.558Z,9.18
2023-04-22T20:58:38.829Z,11.52
2023-04-22T21:01:08.900Z,13.30
2023-04-22T21:03:39.562Z,12.77
2023-04-22T21:06:07.873Z,17.95
2023-04-22T21:08:39.328Z,16.33
2023-04-22T21:11:06.872Z,19.33
2023-04-22T21:13:34.324Z,18.90
2023-04-22T21:16:08.589Z,17.02
2023-04-22T21:18:39.605Z,18.80
2023-04-22T21:21:08.230Z,26.65
2023-04-22T21:23:36.286Z,15.50
2023-04-22T21:26:03.855Z,13.48
2023-04-22T21:28:31.069Z,17.95
2023-04-22T21:30:58.487Z,15.52
2023-04-22T21:33:25.625Z,15.23
2023-04-22T21:35:52.935Z,18.75
2023-04-22T21:38:20.182Z,24.30
2023-04-22T21:40:47.911Z,19.05
2023-04-22T21:43:14.954Z,20.25
2023-04-22T21:45:41.922Z,17.63
2023-04-22T21:48:09.068Z,16.05
2023-04-22T21:50:36.367Z,14.85
2023-04-22T21:53:03.861Z,18.15
2023-04-22T21:55:30.891Z,16.55
2023-04-22T21:57:57.999Z,18.75
2023-04-22T22:00:25.350Z,16.15
2023-04-22T22:02:53.430Z,24.58
2023-04-22T22:05:20.865Z,17.65
2023-04-22T22:07:49.013Z,16.30
2023-04-22T22:10:19.403Z,20.95
2023-04-22T22:12:48.281Z,18.15
2023-04-22T22:15:16.635Z,14.40
2023-04-22T22:17:44.908Z,21.80
2023-04-22T22:20:14.714Z,18.25
2023-04-22T22:22:43.238Z,14.57
2023-04-22T22:25:15.816Z,17.40
2023-04-22T22:27:49.071Z,17.00
2023-04-22T22:30:21.558Z,12.52
2023-04-22T22:32:49.321Z,13.98
2023-04-22T22:35:16.677Z,12.23
2023-04-22T22:37:44.835Z,11.90
2023-04-22T22:40:12.478Z,13.65
2023-04-22T22:42:39.648Z,13.00
2023-04-22T22:45:07.230Z,13.10
2023-04-22T22:47:34.435Z,17.13
2023-04-22T22:50:01.814Z,14.40
2023-04-22T22:52:32.338Z,12.65
2023-04-22T22:54:59.328Z,13.00
2023-04-22T22:57:26.452Z,12.93
2023-04-22T22:59:53.493Z,15.25
2023-04-22T23:02:20.880Z,11.70
2023-04-22T23:04:48.462Z,13.70
2023-04-22T23:07:16.768Z,14.27
2023-04-22T23:09:43.856Z,14.35
2023-04-22T23:12:10.924Z,10.80
2023-04-22T23:14:37.966Z,12.90
2023-04-22T23:17:05.135Z,11.57
2023-04-22T23:19:32.827Z,10.88
2023-04-22T23:22:00.311Z,12.48
2023-04-22T23:24:27.642Z,13.38
2023-04-22T23:26:54.933Z,13.50
2023-04-22T23:29:22.402Z,11.73
2023-04-22T23:31:51.344Z,10.30
2023-04-22T23:34:22.112Z,11.40
2023-04-22T23:36:50.264Z,17.27
2023-04-22T23:39:17.295Z,10.23
2023-04-22T23:41:44.318Z,11.50
2023-04-22T23:44:12.205Z,10.23
2023-04-22T23:46:39.464Z,11.80
2023-04-22T23:49:07.359Z,13.82
2023-04-22T23:51:35.375Z,12.27
2023-04-22T23:54:02.445Z,19.65
2023-04-22T23:56:29.798Z,13.68
2023-04-22T23:58:57.813Z,11.57
